Kristine Bonnevie — LGWS — position and weather

sailwx.info

Track history (hours):
 
Tides and Currents Weather Stations Pressure Air Temp Water Temp Dewpoint Dewpoint Depression Visibility Wind Speed Wind Dir Waves Ship Positions

Oceanographic research ship Kristine Bonnevie (Norway)

Detailed information on ship capabilities available from University of Delaware's Ocean Information Center.

Last reported at 2020-Aug-09 04:30 UTC. Time now 2020-Aug-09 05:24 UTC.
Position N 60°24' E 005°19'.

Length 56.7 m; beam 12.5 m.

Type: Fishing. MMSI: 258523000.

Date/timePositionNaut miles runAvg speedWind from/ knotsBaromVisibWave heightAir tempDewpointWater temp
2020-Aug-09 04:30N 60°24' E 005°19'0 0.0
2020-Aug-08 23:30N 60°24' E 005°19'0 0.0
2020-Aug-08 22:30N 60°24' E 005°19'0 0.0
2020-Aug-08 21:30N 60°24' E 005°19'0 0.0
2020-Aug-08 17:30N 60°24' E 005°19'0 0.0
2020-Aug-08 14:30N 60°24' E 005°19'0 0.0
2020-Aug-08 13:00N 60°24' E 005°19'0 0.0
2020-Aug-08 11:30N 60°24' E 005°19'2 4.5
2020-Aug-08 11:00N 60°24' E 005°14'13 8.7
2020-Aug-08 09:30N 60°11' E 005°11'4 8.5
2020-Aug-08 09:00N 60°09' E 005°04'8 8.4
2020-Aug-08 07:59N 60°07' E 004°48'25 8.4
2020-Aug-08 05:00N 60°02' E 003°58'8 8.3
2020-Aug-08 04:00N 60°00' E 003°42'4 8.3
2020-Aug-08 03:30N 59°59' E 003°34'4 8.5
2020-Aug-08 03:00N 59°59' E 003°25'17 8.3
2020-Aug-08 01:00N 59°55' E 002°53'26 8.1
2020-Aug-07 21:50N 59°49' E 002°03'20 4.7
2020-Aug-07 17:28N 59°47' E 001°23'1510.2
2020-Aug-07 16:00N 59°37' E 001°01'23 7.6
2020-Aug-07 12:59N 59°20' E 000°31'4 4.7
2020-Aug-07 12:04N 59°17' E 000°37'18 9.3
2020-Aug-07 10:07N 59°17' E 001°13'2 3.9
2020-Aug-07 09:35N 59°19' E 001°14'18 2.1
2020-Aug-07 01:00N 59°01' E 001°14'1610.7
2020-Aug-06 23:27N 59°12' E 000°50'2110.5
2020-Aug-06 21:30N 59°26' E 000°20'111 4.3
2020-Aug-05 19:59N 60°43' E 002°58'510.3
2020-Aug-05 19:30N 60°43' E 003°08'2110.2
2020-Aug-05 17:30N 60°45' E 003°50'33 9.4
2020-Aug-05 14:00N 60°35' E 004°55'1111.3
2020-Aug-05 13:00N 60°25' E 005°05'4 9.0
2020-Aug-05 12:30N 60°24' E 005°13'3 0.9
2020-Aug-05 09:30N 60°24' E 005°19'8 2.8
2020-Aug-05 06:30N 60°17' E 005°09'19 9.4
2020-Aug-05 04:30N 60°04' E 004°43'4611.4
2020-Aug-05 00:31N 59°39' E 003°26'  
2020-Aug-01 11:09N 60°16' E 002°22'11 6.6
2020-Aug-01 09:30N 60°14' E 002°44'4 1.0
2020-Aug-01 05:30N 60°15' E 002°36'1 0.4
2020-Aug-01 03:00N 60°15' E 002°34'2 4.5
2020-Aug-01 02:29N 60°14' E 002°38'3 1.7
2020-Aug-01 00:30N 60°15' E 002°44'1 1.1
2020-Aug-01 00:00N 60°15' E 002°43'2610.3
2020-Jul-31 21:29N 60°34' E 002°07'32 8.9
2020-Jul-31 17:54N 60°47' E 001°09'8 3.2
2020-Jul-31 15:30N 60°55' E 001°07'17 4.9
2020-Jul-31 11:59N 61°11' E 001°18'18 9.3
2020-Jul-31 10:00N 61°11' E 000°40'  
Track history (hours):
 
Tides and Currents Weather Stations Pressure Air Temp Water Temp Dewpoint Dewpoint Depression Visibility Wind Speed Wind Dir Waves Ship Positions

Oceanographic research ship Kristine Bonnevie (Norway)

Detailed information on ship capabilities available from University of Delaware's Ocean Information Center.

Last reported at 2020-Aug-09 04:30 UTC. Time now 2020-Aug-09 05:24 UTC.
Position N 60°24' E 005°19'.

Length 56.7 m; beam 12.5 m.

Type: Fishing. MMSI: 258523000.

Date/timePositionNaut miles runAvg speedWind from/ knotsBaromVisibWave heightAir tempDewpointWater temp
2020-Aug-09 04:30N 60°24' E 005°19'0 0.0
2020-Aug-08 23:30N 60°24' E 005°19'0 0.0
2020-Aug-08 22:30N 60°24' E 005°19'0 0.0
2020-Aug-08 21:30N 60°24' E 005°19'0 0.0
2020-Aug-08 17:30N 60°24' E 005°19'0 0.0
2020-Aug-08 14:30N 60°24' E 005°19'0 0.0
2020-Aug-08 13:00N 60°24' E 005°19'0 0.0
2020-Aug-08 11:30N 60°24' E 005°19'2 4.5
2020-Aug-08 11:00N 60°24' E 005°14'13 8.7
2020-Aug-08 09:30N 60°11' E 005°11'4 8.5
2020-Aug-08 09:00N 60°09' E 005°04'8 8.4
2020-Aug-08 07:59N 60°07' E 004°48'25 8.4
2020-Aug-08 05:00N 60°02' E 003°58'8 8.3
2020-Aug-08 04:00N 60°00' E 003°42'4 8.3
2020-Aug-08 03:30N 59°59' E 003°34'4 8.5
2020-Aug-08 03:00N 59°59' E 003°25'17 8.3
2020-Aug-08 01:00N 59°55' E 002°53'26 8.1
2020-Aug-07 21:50N 59°49' E 002°03'20 4.7
2020-Aug-07 17:28N 59°47' E 001°23'1510.2
2020-Aug-07 16:00N 59°37' E 001°01'23 7.6
2020-Aug-07 12:59N 59°20' E 000°31'4 4.7
2020-Aug-07 12:04N 59°17' E 000°37'18 9.3
2020-Aug-07 10:07N 59°17' E 001°13'2 3.9
2020-Aug-07 09:35N 59°19' E 001°14'18 2.1
2020-Aug-07 01:00N 59°01' E 001°14'1610.7
2020-Aug-06 23:27N 59°12' E 000°50'2110.5
2020-Aug-06 21:30N 59°26' E 000°20'111 4.3
2020-Aug-05 19:59N 60°43' E 002°58'510.3
2020-Aug-05 19:30N 60°43' E 003°08'2110.2
2020-Aug-05 17:30N 60°45' E 003°50'33 9.4
2020-Aug-05 14:00N 60°35' E 004°55'1111.3
2020-Aug-05 13:00N 60°25' E 005°05'4 9.0
2020-Aug-05 12:30N 60°24' E 005°13'3 0.9
2020-Aug-05 09:30N 60°24' E 005°19'8 2.8
2020-Aug-05 06:30N 60°17' E 005°09'19 9.4
2020-Aug-05 04:30N 60°04' E 004°43'4611.4
2020-Aug-05 00:31N 59°39' E 003°26'  
2020-Aug-01 11:09N 60°16' E 002°22'11 6.6
2020-Aug-01 09:30N 60°14' E 002°44'4 1.0
2020-Aug-01 05:30N 60°15' E 002°36'1 0.4
2020-Aug-01 03:00N 60°15' E 002°34'2 4.5
2020-Aug-01 02:29N 60°14' E 002°38'3 1.7
2020-Aug-01 00:30N 60°15' E 002°44'1 1.1
2020-Aug-01 00:00N 60°15' E 002°43'2610.3
2020-Jul-31 21:29N 60°34' E 002°07'32 8.9
2020-Jul-31 17:54N 60°47' E 001°09'8 3.2
2020-Jul-31 15:30N 60°55' E 001°07'17 4.9
2020-Jul-31 11:59N 61°11' E 001°18'18 9.3
2020-Jul-31 10:00N 61°11' E 000°40'  

Dump ship's entire track history